Time;durP1;ratioP1;P1;durP2;ratioP2;P2;SDS_P1;SDS_P2;PMS_P1;PMS_P2;Temp;Humidity;BMP_temperature;BMP_pressure;BME280_temperature;BME280_humidity;BME280_pressure;Samples;Min_cycle;Max_cycle;Signal;HPM_P1;HPM_P2
2021/08/10 00:02:07;;;;;;;5.10;2.53;;;;;;;15.66;79.93;100655.97;20859214;28;20041;-81
2021/08/10 00:12:09;;;;;;;6.82;2.85;;;;;;;15.67;80.04;100655.09;20845143;28;20045;-81
2021/08/10 00:22:11;;;;;;;6.10;2.58;;;;;;;15.64;80.29;100652.53;20865538;28;20508;-81
2021/08/10 00:32:13;;;;;;;7.15;2.92;;;;;;;15.56;80.54;100647.47;20870875;28;20099;-81
2021/08/10 00:42:15;;;;;;;8.18;3.05;;;;;;;15.51;81.01;100652.03;20878009;28;20180;-81
2021/08/10 00:52:17;;;;;;;6.57;3.17;;;;;;;15.34;82.12;100649.06;20861326;28;20042;-81
2021/08/10 01:02:19;;;;;;;6.90;3.15;;;;;;;15.35;82.11;100645.53;20856973;28;20111;-81
2021/08/10 01:12:30;;;;;;;6.03;2.63;;;;;;;15.34;81.54;100639.38;20862590;28;20038;-81
2021/08/10 01:22:33;;;;;;;5.45;2.70;;;;;;;15.29;81.77;100628.13;20868159;28;20053;-81
2021/08/10 01:32:37;;;;;;;8.98;3.15;;;;;;;15.28;82.43;100622.88;20846355;28;20056;-81
2021/08/10 01:42:41;;;;;;;5.00;2.97;;;;;;;15.25;81.95;100612.44;20832928;28;20057;-81
2021/08/10 01:52:43;;;;;;;8.73;3.33;;;;;;;15.05;82.99;100621.81;20832223;28;20049;-81
2021/08/10 02:02:45;;;;;;;7.97;3.10;;;;;;;14.87;83.61;100625.88;20827669;28;20107;-81
2021/08/10 02:12:48;;;;;;;11.60;3.90;;;;;;;14.82;83.51;100635.69;20828395;28;20060;-81
2021/08/10 02:22:51;;;;;;;7.53;3.33;;;;;;;14.79;83.17;100627.84;20848831;28;20085;-82
2021/08/10 02:32:55;;;;;;;5.75;2.90;;;;;;;14.78;83.26;100612.97;20841866;28;20042;-81
2021/08/10 02:42:59;;;;;;;7.95;3.50;;;;;;;14.68;83.18;100621.19;20869739;28;20487;-81
2021/08/10 02:53:05;;;;;;;6.97;2.93;;;;;;;14.55;83.55;100608.34;20888751;28;20068;-82
2021/08/10 03:03:13;;;;;;;9.25;4.47;;;;;;;14.46;84.04;100613.84;20816220;28;20272;-81
2021/08/10 03:13:16;;;;;;;8.57;3.83;;;;;;;14.54;84.11;100624.22;20847452;28;20064;-81
2021/08/10 03:23:19;;;;;;;5.90;3.38;;;;;;;14.62;83.36;100630.13;20846119;28;20411;-82
2021/08/10 03:33:23;;;;;;;9.82;3.58;;;;;;;14.70;83.52;100638.66;20865776;28;20054;-82
2021/08/10 03:43:27;;;;;;;8.60;3.70;;;;;;;14.76;82.86;100635.88;20843619;28;20072;-81
2021/08/10 03:53:31;;;;;;;9.75;3.72;;;;;;;14.73;82.84;100641.22;20846153;28;20366;-82
2021/08/10 04:03:35;;;;;;;10.25;3.40;;;;;;;14.80;82.59;100652.44;20868716;28;20038;-81
2021/08/10 04:13:37;;;;;;;7.43;3.43;;;;;;;14.71;82.52;100657.97;20846076;28;20053;-80
2021/08/10 04:23:39;;;;;;;9.68;3.85;;;;;;;14.66;83.51;100651.97;20848168;28;20329;-80
2021/08/10 04:33:41;;;;;;;9.20;4.32;;;;;;;14.87;83.00;100660.16;20848169;28;20038;-80
2021/08/10 04:43:43;;;;;;;8.10;3.90;;;;;;;15.00;84.00;100660.66;20790005;28;20388;-80
2021/08/10 04:53:45;;;;;;;8.35;4.40;;;;;;;15.20;82.84;100675.00;20760134;28;20049;-80
2021/08/10 05:03:46;;;;;;;7.75;3.83;;;;;;;15.45;82.17;100683.91;20765891;28;20042;-80
2021/08/10 05:13:48;;;;;;;9.15;3.47;;;;;;;15.66;82.30;100679.72;20767251;28;20580;-80
2021/08/10 05:23:51;;;;;;;7.65;3.50;;;;;;;15.86;81.26;100689.66;20765184;28;20123;-80
2021/08/10 05:33:52;;;;;;;9.18;3.88;;;;;;;16.10;80.61;100682.72;20758647;28;20092;-80
2021/08/10 05:43:54;;;;;;;7.82;4.47;;;;;;;16.18;80.50;100683.28;20760059;28;20050;-80
2021/08/10 05:53:56;;;;;;;8.80;4.20;;;;;;;16.29;80.04;100678.50;20755077;28;20050;-80
2021/08/10 06:03:58;;;;;;;7.57;4.00;;;;;;;16.40;79.72;100681.63;20757715;28;20069;-80
2021/08/10 06:14:00;;;;;;;6.90;4.25;;;;;;;16.53;79.59;100673.25;20751219;28;20463;-80
2021/08/10 06:24:02;;;;;;;14.48;5.55;;;;;;;16.99;78.14;100661.88;20749356;28;20054;-80
2021/08/10 06:34:04;;;;;;;6.30;3.65;;;;;;;17.35;77.03;100648.16;20744875;28;20111;-80
2021/08/10 06:44:05;;;;;;;5.78;2.97;;;;;;;17.57;75.40;100640.19;20785042;28;20046;-80
2021/08/10 06:54:07;;;;;;;6.75;3.08;;;;;;;17.78;75.04;100622.63;20792249;28;20054;-80
2021/08/10 07:04:09;;;;;;;7.45;3.35;;;;;;;18.27;73.68;100620.50;20815530;28;20041;-80
2021/08/10 07:14:12;;;;;;;7.50;2.60;;;;;;;18.83;70.89;100595.88;20858508;28;20125;-81
2021/08/10 07:24:14;;;;;;;6.22;2.85;;;;;;;19.30;67.86;100611.31;20891400;28;20072;-80
2021/08/10 07:34:16;;;;;;;7.07;2.72;;;;;;;19.75;64.44;100620.66;20848813;28;20042;-80
2021/08/10 07:44:17;;;;;;;6.25;2.30;;;;;;;20.01;63.11;100638.78;20847539;28;20046;-80
2021/08/10 07:54:19;;;;;;;7.05;2.50;;;;;;;20.11;63.76;100649.81;20855064;28;20803;-81
2021/08/10 08:04:21;;;;;;;7.32;1.90;;;;;;;20.38;62.32;100640.41;20857419;28;20069;-80
2021/08/10 08:14:23;;;;;;;5.15;2.10;;;;;;;20.46;61.88;100642.69;20836395;28;20190;-81
2021/08/10 08:24:25;;;;;;;4.30;2.00;;;;;;;20.78;61.83;100632.97;20856560;28;20053;-81
2021/08/10 08:34:27;;;;;;;6.18;1.90;;;;;;;21.22;59.14;100641.19;20852225;28;20076;-81
2021/08/10 08:44:36;;;;;;;6.43;2.20;;;;;;;21.49;60.39;100637.94;20831537;28;20051;-80
2021/08/10 08:54:38;;;;;;;6.00;1.73;;;;;;;22.36;56.38;100635.47;20828560;28;20057;-80
2021/08/10 09:04:40;;;;;;;5.78;1.98;;;;;;;22.53;55.19;100637.09;20839906;28;20053;-80
2021/08/10 09:14:50;;;;;;;6.35;2.17;;;;;;;22.17;56.76;100641.03;20833958;28;20121;-82
2021/08/10 09:24:54;;;;;;;5.40;2.20;;;;;;;22.04;57.54;100640.06;20834239;28;20049;-81
2021/08/10 09:35:14;;;;;;;5.63;2.00;;;;;;;22.56;56.91;100642.25;20812564;28;20087;-81
2021/08/10 09:45:16;;;;;;;6.13;2.00;;;;;;;22.26;56.90;100637.81;20829608;28;20480;-80
2021/08/10 09:55:18;;;;;;;5.03;2.38;;;;;;;22.73;56.31;100635.88;20836083;28;20049;-81
2021/08/10 10:05:39;;;;;;;5.65;2.30;;;;;;;22.52;56.68;100625.56;20822590;28;20049;-80
2021/08/10 10:15:42;;;;;;;4.93;2.47;;;;;;;22.81;52.75;100635.41;20855421;28;20041;-81
2021/08/10 10:25:46;;;;;;;8.85;2.55;;;;;;;22.59;54.07;100627.84;20846522;28;20096;-80
2021/08/10 10:35:49;;;;;;;4.72;2.03;;;;;;;22.98;54.43;100636.06;20847268;28;20049;-81
2021/08/10 10:45:53;;;;;;;4.97;2.00;;;;;;;23.00;51.80;100631.50;20831251;28;20392;-80
2021/08/10 10:55:55;;;;;;;6.10;2.20;;;;;;;23.88;51.26;100628.44;20847965;28;20107;-81
2021/08/10 11:06:37;;;;;;;6.40;2.10;;;;;;;24.39;48.92;100628.56;20846897;28;20061;-81
2021/08/10 11:17:07;;;;;;;6.13;2.03;;;;;;;24.25;47.48;100619.63;20851492;28;20049;-80
2021/08/10 11:27:31;;;;;;;5.15;1.90;;;;;;;24.28;48.97;100629.25;20838914;28;20095;-80
2021/08/10 11:37:33;;;;;;;6.17;2.10;;;;;;;24.56;46.26;100620.19;20855035;28;20709;-80
2021/08/10 11:47:35;;;;;;;5.03;1.92;;;;;;;24.26;46.75;100621.34;20839631;28;20053;-79
2021/08/10 11:57:51;;;;;;;7.15;2.30;;;;;;;24.17;46.04;100615.75;20826889;28;20068;-81
2021/08/10 12:07:58;;;;;;;5.85;2.10;;;;;;;24.19;47.36;100605.78;20837628;28;20041;-81
2021/08/10 12:18:00;;;;;;;8.15;2.30;;;;;;;23.84;49.91;100600.19;20839195;28;20126;-81
2021/08/10 12:28:07;;;;;;;4.32;2.08;;;;;;;23.85;47.13;100596.56;20841204;28;20049;-81
2021/08/10 12:38:09;;;;;;;6.38;1.90;;;;;;;24.27;48.14;100592.75;20840511;28;20111;-80
2021/08/10 12:48:33;;;;;;;5.75;1.92;;;;;;;24.17;47.05;100580.97;20841533;28;20103;-80
2021/08/10 12:58:51;;;;;;;5.83;1.70;;;;;;;24.60;46.41;100568.13;20828834;28;20049;-80
2021/08/10 13:08:54;;;;;;;5.43;1.90;;;;;;;24.29;47.17;100564.03;20838069;28;20041;-81
2021/08/10 13:19:16;;;;;;;7.03;2.20;;;;;;;24.94;46.47;100560.34;20857842;28;20045;-80
2021/08/10 13:29:19;;;;;;;5.03;2.08;;;;;;;24.77;46.76;100551.72;20839478;28;20100;-81
2021/08/10 13:39:22;;;;;;;6.10;2.00;;;;;;;25.25;46.66;100554.47;20842928;28;20072;-80
2021/08/10 13:49:24;;;;;;;8.77;2.30;;;;;;;24.31;47.78;100538.91;20859056;28;20049;-80
2021/08/10 13:59:27;;;;;;;4.43;1.80;;;;;;;24.13;47.14;100521.47;20837089;28;20052;-81
2021/08/10 14:09:29;;;;;;;5.22;2.08;;;;;;;24.07;50.70;100527.25;20831821;28;20053;-80
2021/08/10 14:19:32;;;;;;;5.63;1.88;;;;;;;23.99;47.36;100516.22;20832058;28;20435;-80
2021/08/10 14:29:34;;;;;;;5.05;2.00;;;;;;;24.23;48.11;100514.50;20855198;28;20577;-80
2021/08/10 14:39:35;;;;;;;5.20;2.15;;;;;;;24.33;47.99;100512.03;20831753;28;20045;-80
2021/08/10 14:49:40;;;;;;;4.57;2.13;;;;;;;24.73;44.87;100503.84;20853034;28;20046;-80
2021/08/10 14:59:42;;;;;;;5.72;2.22;;;;;;;25.03;43.80;100511.44;20840967;28;20053;-80
2021/08/10 15:09:44;;;;;;;5.57;2.05;;;;;;;25.09;44.27;100489.56;20849104;28;20095;-80
2021/08/10 15:19:46;;;;;;;7.47;2.17;;;;;;;25.26;45.96;100491.00;20869519;28;20465;-80
2021/08/10 15:29:48;;;;;;;8.98;2.10;;;;;;;24.87;45.87;100489.44;20835669;28;20172;-80
2021/08/10 15:39:50;;;;;;;6.63;2.17;;;;;;;24.89;46.71;100484.81;20876755;28;20106;-80
2021/08/10 15:49:53;;;;;;;5.93;2.17;;;;;;;24.81;46.07;100478.19;20865213;28;20057;-80
2021/08/10 15:59:55;;;;;;;4.73;1.83;;;;;;;24.94;45.69;100469.25;20895597;28;20176;-81
2021/08/10 16:09:58;;;;;;;4.28;2.20;;;;;;;25.18;45.39;100467.44;20846183;28;20056;-80
2021/08/10 16:19:59;;;;;;;4.57;2.22;;;;;;;24.77;45.77;100467.84;20854525;28;20103;-80
2021/08/10 16:30:02;;;;;;;7.07;2.35;;;;;;;24.99;44.29;100464.41;20824565;28;20104;-79
2021/08/10 16:40:06;;;;;;;5.35;2.25;;;;;;;24.92;44.60;100460.50;20831234;28;20511;-79
2021/08/10 16:50:10;;;;;;;4.97;2.30;;;;;;;25.06;43.37;100469.22;20840551;28;20061;-79
2021/08/10 17:00:13;;;;;;;5.72;2.30;;;;;;;24.50;44.91;100466.22;20834443;28;20077;-79
2021/08/10 17:10:15;;;;;;;5.55;3.03;;;;;;;24.37;44.91;100467.22;20853375;28;20090;-78
2021/08/10 17:20:26;;;;;;;5.93;2.47;;;;;;;24.09;46.07;100471.81;20857747;28;20053;-78
2021/08/10 17:30:29;;;;;;;5.43;2.53;;;;;;;24.00;46.85;100468.00;20872622;28;20050;-78
2021/08/10 17:40:33;;;;;;;5.55;2.90;;;;;;;23.87;47.42;100460.94;20859315;28;20514;-78
2021/08/10 17:50:37;;;;;;;7.15;2.80;;;;;;;23.74;47.82;100461.78;20861190;28;20065;-79
2021/08/10 18:00:40;;;;;;;8.60;3.20;;;;;;;23.63;48.31;100466.16;20856304;28;20136;-78
2021/08/10 18:10:42;;;;;;;6.40;2.95;;;;;;;23.84;47.93;100469.16;20861564;28;20060;-78
2021/08/10 18:20:44;;;;;;;6.68;3.00;;;;;;;23.44;49.96;100477.25;20845976;28;20046;-78
2021/08/10 18:30:47;;;;;;;5.60;2.90;;;;;;;22.99;51.18;100495.38;20840004;28;20050;-78
2021/08/10 18:40:48;;;;;;;5.80;3.08;;;;;;;22.69;52.32;100495.53;20867776;28;20053;-79
2021/08/10 18:50:50;;;;;;;8.88;3.35;;;;;;;22.36;55.07;100506.53;20874236;28;20041;-78
2021/08/10 19:00:52;;;;;;;5.20;2.60;;;;;;;22.06;56.59;100510.16;20819347;28;20901;-78
2021/08/10 19:10:54;;;;;;;7.22;3.10;;;;;;;21.67;58.75;100532.94;20847382;28;20136;-78
2021/08/10 19:20:56;;;;;;;7.57;3.40;;;;;;;21.26;60.04;100546.00;20865756;28;20079;-78
2021/08/10 19:30:57;;;;;;;7.43;3.95;;;;;;;21.07;62.02;100543.53;20880034;28;20075;-79
2021/08/10 19:40:59;;;;;;;5.93;3.42;;;;;;;20.74;63.36;100549.81;20870087;28;20053;-78
2021/08/10 19:51:02;;;;;;;9.75;4.45;;;;;;;20.40;64.35;100563.19;20868234;28;20057;-78
2021/08/10 20:01:04;;;;;;;8.80;4.00;;;;;;;20.17;65.26;100570.63;20876895;28;20109;-78
2021/08/10 20:11:07;;;;;;;7.13;4.35;;;;;;;20.07;66.85;100566.69;20899027;28;20068;-78
2021/08/10 20:21:09;;;;;;;6.90;3.78;;;;;;;20.03;66.74;100572.28;20861585;28;20124;-78
2021/08/10 20:31:11;;;;;;;5.70;3.25;;;;;;;20.06;66.62;100575.63;20862742;28;20156;-78
2021/08/10 20:41:12;;;;;;;6.78;3.47;;;;;;;20.02;67.34;100576.72;20879085;28;20199;-78
2021/08/10 20:51:14;;;;;;;8.27;3.78;;;;;;;19.91;67.58;100581.72;20855068;28;20061;-78
2021/08/10 21:01:16;;;;;;;6.50;3.33;;;;;;;19.78;67.77;100585.94;20856260;28;20075;-78
2021/08/10 21:11:18;;;;;;;9.45;3.75;;;;;;;19.61;68.73;100593.00;20855077;28;20099;-78
2021/08/10 21:21:20;;;;;;;7.15;3.30;;;;;;;19.42;70.35;100602.78;20834771;28;20053;-78
2021/08/10 21:31:23;;;;;;;6.68;3.30;;;;;;;19.33;70.70;100597.91;20862285;28;20095;-78
2021/08/10 21:41:25;;;;;;;7.10;3.50;;;;;;;19.09;71.32;100602.59;20846826;28;20048;-78
2021/08/10 21:51:27;;;;;;;6.93;3.50;;;;;;;18.93;72.88;100615.75;20868240;28;20530;-78
2021/08/10 22:01:31;;;;;;;8.90;3.50;;;;;;;18.90;72.81;100622.03;20844871;28;20098;-78
2021/08/10 22:11:53;;;;;;;7.20;3.40;;;;;;;18.73;73.59;100637.00;20769822;28;20042;-80
2021/08/10 22:21:55;;;;;;;8.40;4.57;;;;;;;18.48;74.27;100634.59;20782265;28;20068;-80
2021/08/10 22:31:57;;;;;;;6.10;3.78;;;;;;;18.23;75.28;100629.50;20766486;28;20660;-81
2021/08/10 22:41:59;;;;;;;7.68;3.88;;;;;;;18.11;75.55;100637.06;20765259;28;20046;-80
2021/08/10 22:52:02;;;;;;;7.22;3.92;;;;;;;18.23;75.67;100640.97;20780089;28;20042;-80
2021/08/10 23:02:04;;;;;;;8.18;4.00;;;;;;;18.24;75.70;100647.13;20776023;28;20420;-80
2021/08/10 23:12:06;;;;;;;6.55;3.95;;;;;;;18.08;75.76;100647.78;20774621;28;20640;-80
2021/08/10 23:22:08;;;;;;;7.25;4.30;;;;;;;17.91;76.92;100652.94;20768154;28;20341;-80
2021/08/10 23:32:10;;;;;;;7.25;4.18;;;;;;;17.69;77.27;100656.47;20765965;28;20042;-81
2021/08/10 23:42:12;;;;;;;8.43;4.13;;;;;;;17.57;77.52;100653.44;20761782;28;20056;-80
2021/08/10 23:52:14;;;;;;;9.25;4.32;;;;;;;17.32;79.13;100657.06;20782442;28;20046;-81
